Time;durP1;ratioP1;P1;durP2;ratioP2;P2;SDS_P1;SDS_P2;PMS_P1;PMS_P2;Temp;Humidity;BMP_temperature;BMP_pressure;BME280_temperature;BME280_humidity;BME280_pressure;Samples;Min_cycle;Max_cycle;Signal;HPM_P1;HPM_P2
2022/08/08 00:00:18;;;;;;;1.27;0.80;;;;;;;16.49;46.15;100567.34;4982423;28;20210;-73
2022/08/08 00:03:05;;;;;;;1.33;0.73;;;;;;;16.42;46.17;100567.78;4975183;28;20188;-73
2022/08/08 00:05:50;;;;;;;2.60;1.03;;;;;;;16.28;46.31;100571.34;4991314;28;20746;-73
2022/08/08 00:08:42;;;;;;;3.17;1.00;;;;;;;16.21;46.77;100570.13;4991932;28;20720;-73
2022/08/08 00:11:24;;;;;;;1.33;0.87;;;;;;;16.21;46.77;100562.34;4969082;28;20677;-73
2022/08/08 00:14:00;;;;;;;0.87;0.80;;;;;;;16.24;47.04;100569.91;4998141;28;20198;-72
2022/08/08 00:16:31;;;;;;;4.73;1.10;;;;;;;16.29;46.99;100565.22;4978706;28;20194;-73
2022/08/08 00:19:07;;;;;;;2.20;0.93;;;;;;;16.25;47.07;100568.16;4975734;28;20640;-73
2022/08/08 00:21:37;;;;;;;2.83;1.00;;;;;;;16.27;47.52;100574.06;4987863;28;20238;-73
2022/08/08 00:24:10;;;;;;;1.77;0.90;;;;;;;16.39;47.23;100574.97;5012534;28;20694;-72
2022/08/08 00:26:40;;;;;;;1.57;1.00;;;;;;;16.36;47.06;100569.97;5012148;28;20182;-73
2022/08/08 00:29:17;;;;;;;1.00;0.90;;;;;;;16.32;47.33;100573.72;5013432;28;20264;-73
2022/08/08 00:31:49;;;;;;;5.63;1.10;;;;;;;16.23;47.72;100565.66;5030350;28;20232;-72
2022/08/08 00:37:29;;;;;;;1.53;1.00;;;;;;;16.29;48.23;100573.00;5001003;28;20194;-72
2022/08/08 00:40:23;;;;;;;0.80;0.80;;;;;;;16.14;48.47;100579.28;5013491;28;20317;-73
2022/08/08 00:43:07;;;;;;;1.40;1.00;;;;;;;16.02;49.59;100570.59;4985406;28;20206;-73
2022/08/08 00:45:57;;;;;;;1.30;1.20;;;;;;;15.88;50.92;100573.34;5011350;28;20194;-73
2022/08/08 00:49:01;;;;;;;1.67;1.20;;;;;;;15.87;51.19;100571.66;5011995;28;20708;-72
2022/08/08 00:51:51;;;;;;;2.57;1.10;;;;;;;15.81;51.47;100570.28;5008951;28;20221;-73
2022/08/08 00:54:51;;;;;;;1.10;1.00;;;;;;;15.92;50.97;100564.41;5015544;28;20275;-72
2022/08/08 00:57:40;;;;;;;1.47;1.10;;;;;;;15.90;50.96;100566.25;5012946;28;20217;-73
2022/08/08 01:00:17;;;;;;;0.97;0.90;;;;;;;15.82;50.47;100566.78;5001642;28;20641;-73
2022/08/08 01:03:08;;;;;;;3.70;1.00;;;;;;;15.73;50.83;100563.03;5041030;28;20175;-73
2022/08/08 01:06:06;;;;;;;1.47;0.90;;;;;;;15.61;51.33;100550.91;5010942;28;20704;-73
2022/08/08 01:08:38;;;;;;;1.43;0.90;;;;;;;15.62;52.29;100553.41;5011639;28;20202;-73
2022/08/08 01:11:26;;;;;;;0.80;0.80;;;;;;;15.70;51.92;100555.47;5014509;28;20318;-72
2022/08/08 01:14:24;;;;;;;1.17;1.00;;;;;;;15.59;52.42;100560.56;5027469;28;20202;-72
2022/08/08 01:17:26;;;;;;;1.13;0.70;;;;;;;15.57;52.56;100562.44;5012618;28;20342;-72
2022/08/08 01:20:13;;;;;;;2.53;0.80;;;;;;;15.48;52.91;100556.94;5011092;28;20223;-72
2022/08/08 01:23:00;;;;;;;1.20;1.00;;;;;;;15.49;52.58;100555.16;4984476;28;20292;-72
2022/08/08 01:26:02;;;;;;;2.37;0.90;;;;;;;15.38;52.99;100547.28;5012101;28;20277;-72
2022/08/08 01:28:46;;;;;;;2.07;0.87;;;;;;;15.32;53.39;100559.75;5010207;28;20202;-72
2022/08/08 01:31:29;;;;;;;1.93;1.00;;;;;;;15.34;53.33;100551.84;5013847;28;20233;-73
2022/08/08 01:34:12;;;;;;;1.33;0.83;;;;;;;15.31;53.40;100552.88;5007921;28;20178;-74
2022/08/08 01:36:56;;;;;;;1.53;1.00;;;;;;;15.38;53.18;100550.72;5016103;28;20186;-72
2022/08/08 01:39:28;;;;;;;0.87;0.87;;;;;;;15.33;53.05;100551.03;5010909;28;20186;-72
2022/08/08 01:42:04;;;;;;;5.37;1.07;;;;;;;15.29;54.82;100556.53;5019348;28;20348;-73
2022/08/08 01:45:01;;;;;;;0.93;0.80;;;;;;;15.23;54.44;100560.38;5010733;28;20179;-73
2022/08/08 01:47:49;;;;;;;0.80;0.73;;;;;;;15.28;54.41;100563.47;5013497;28;20202;-72
2022/08/08 01:50:36;;;;;;;0.83;0.80;;;;;;;15.26;54.21;100554.97;5004830;28;20187;-72
2022/08/08 01:53:22;;;;;;;0.90;0.80;;;;;;;15.16;54.17;100554.75;5035311;28;20170;-72
2022/08/08 01:55:59;;;;;;;1.37;0.90;;;;;;;15.21;54.78;100562.22;5010100;28;20228;-72
2022/08/08 01:59:00;;;;;;;2.53;1.13;;;;;;;15.17;53.70;100561.59;5010338;28;20193;-73
2022/08/08 02:01:43;;;;;;;0.90;0.90;;;;;;;15.11;54.71;100561.19;5009088;28;20224;-72
2022/08/08 02:04:19;;;;;;;2.10;0.90;;;;;;;15.12;54.97;100558.47;5016763;28;20191;-72
2022/08/08 02:06:54;;;;;;;1.47;0.90;;;;;;;15.08;56.48;100567.41;5010312;28;20303;-72
2022/08/08 02:09:31;;;;;;;1.27;0.80;;;;;;;15.09;55.94;100560.44;5010737;28;20658;-72
2022/08/08 02:12:00;;;;;;;1.03;0.93;;;;;;;15.11;55.61;100567.19;5029425;28;20699;-72
2022/08/08 02:14:40;;;;;;;1.73;1.10;;;;;;;15.03;55.77;100560.84;5015458;28;20182;-72
2022/08/08 02:17:36;;;;;;;2.10;0.90;;;;;;;15.00;56.49;100562.69;5019885;28;20544;-71
2022/08/08 02:20:11;;;;;;;1.47;1.00;;;;;;;14.94;56.64;100570.06;5012115;28;20179;-72
2022/08/08 02:22:54;;;;;;;2.60;1.27;;;;;;;14.87;56.93;100567.03;4984544;28;20297;-72
2022/08/08 02:25:28;;;;;;;2.23;1.00;;;;;;;14.84;57.08;100575.00;5011691;28;20197;-72
2022/08/08 02:27:56;;;;;;;2.40;1.07;;;;;;;14.86;57.12;100586.09;5010461;28;20250;-73
2022/08/08 02:30:33;;;;;;;0.77;0.77;;;;;;;14.81;57.29;100583.81;5006969;28;20498;-71
2022/08/08 02:33:40;;;;;;;2.27;1.20;;;;;;;14.75;57.66;100584.19;5036248;28;20183;-71
2022/08/08 02:36:23;;;;;;;1.03;0.83;;;;;;;14.67;57.19;100578.69;4968583;28;20198;-71
2022/08/08 02:38:58;;;;;;;2.27;0.93;;;;;;;14.68;56.85;100578.56;4970573;28;20739;-71
2022/08/08 02:41:35;;;;;;;2.33;1.23;;;;;;;14.72;57.63;100576.63;4964761;28;20239;-71
2022/08/08 02:44:38;;;;;;;2.93;0.90;;;;;;;14.61;57.44;100568.69;4957420;28;20258;-71
2022/08/08 02:47:48;;;;;;;2.40;0.90;;;;;;;14.58;58.05;100574.06;4957760;28;20203;-71
2022/08/08 02:50:39;;;;;;;1.37;0.93;;;;;;;14.69;57.96;100567.28;4946169;28;20196;-72
2022/08/08 02:53:28;;;;;;;1.70;0.87;;;;;;;14.73;58.37;100565.34;4949253;28;20303;-71
2022/08/08 02:56:12;;;;;;;3.03;1.60;;;;;;;14.60;58.26;100567.00;4968530;28;20208;-72
2022/08/08 02:59:09;;;;;;;1.87;1.00;;;;;;;14.64;58.47;100565.91;4974111;28;20659;-72
2022/08/08 03:02:11;;;;;;;1.17;1.07;;;;;;;14.50;58.68;100570.19;4938448;28;20223;-72
2022/08/08 03:04:57;;;;;;;0.87;0.87;;;;;;;14.58;58.28;100567.13;4973402;28;20191;-71
2022/08/08 03:08:02;;;;;;;2.80;0.97;;;;;;;14.67;57.46;100566.56;4973861;28;20224;-72
2022/08/08 03:10:52;;;;;;;5.30;0.80;;;;;;;14.62;57.24;100565.16;4997475;28;20320;-72
2022/08/08 03:13:50;;;;;;;1.20;1.10;;;;;;;14.53;58.16;100564.81;5034129;28;20183;-72
2022/08/08 03:16:18;;;;;;;1.90;0.87;;;;;;;14.59;58.29;100567.97;5025345;28;20312;-72
2022/08/08 03:18:47;;;;;;;1.23;1.10;;;;;;;14.58;57.78;100572.28;5020080;28;20278;-72
2022/08/08 03:21:13;;;;;;;1.20;1.10;;;;;;;14.65;57.49;100570.19;5016322;28;20229;-71
2022/08/08 03:23:38;;;;;;;2.30;1.20;;;;;;;14.57;58.14;100580.16;5028196;28;20494;-72
2022/08/08 03:26:03;;;;;;;2.20;1.00;;;;;;;14.54;58.82;100578.59;5013084;28;20182;-72
2022/08/08 03:28:41;;;;;;;0.97;0.80;;;;;;;14.38;59.13;100573.56;5013495;28;20313;-73
2022/08/08 03:33:51;;;;;;;1.93;1.10;;;;;;;14.59;60.38;100570.56;5024299;28;20245;-63
2022/08/08 03:36:17;;;;;;;1.40;0.97;;;;;;;14.56;60.66;100579.31;5015057;28;20295;-63
2022/08/08 03:38:50;;;;;;;1.17;1.03;;;;;;;14.56;60.54;100575.91;5013269;28;20266;-63
2022/08/08 03:41:15;;;;;;;2.30;0.97;;;;;;;14.74;60.11;100573.94;5024068;28;20320;-62
2022/08/08 03:43:41;;;;;;;1.70;1.17;;;;;;;14.73;60.22;100575.69;5027489;28;20270;-62
2022/08/08 03:46:06;;;;;;;1.20;1.10;;;;;;;14.78;60.00;100572.81;5012501;28;20175;-62
2022/08/08 03:48:32;;;;;;;2.47;1.37;;;;;;;14.74;60.82;100582.53;5013090;28;20195;-62
2022/08/08 03:50:57;;;;;;;3.37;1.17;;;;;;;14.70;59.80;100578.50;5012405;28;20548;-63
2022/08/08 03:53:24;;;;;;;2.37;0.93;;;;;;;14.75;59.91;100578.19;5030534;28;20186;-63
2022/08/08 03:55:50;;;;;;;1.00;1.00;;;;;;;14.73;60.32;100580.88;5014023;28;20265;-63
2022/08/08 03:58:23;;;;;;;1.03;1.00;;;;;;;14.74;60.43;100584.31;5014060;28;20185;-63
2022/08/08 04:00:54;;;;;;;2.70;1.30;;;;;;;14.79;60.44;100585.66;5016209;28;20225;-63
2022/08/08 04:03:21;;;;;;;1.77;1.27;;;;;;;14.79;60.53;100583.06;5032549;28;20187;-63
2022/08/08 04:05:46;;;;;;;2.70;1.10;;;;;;;14.79;59.50;100590.00;5012088;28;20285;-63
2022/08/08 04:08:20;;;;;;;0.90;0.90;;;;;;;14.68;59.73;100595.88;5013735;28;20206;-63
2022/08/08 04:10:48;;;;;;;2.83;1.13;;;;;;;14.60;60.57;100593.75;5011476;28;20247;-63
2022/08/08 04:13:14;;;;;;;1.10;0.97;;;;;;;14.66;60.77;100597.72;5027205;28;20187;-63
2022/08/08 04:15:39;;;;;;;1.00;0.90;;;;;;;14.56;61.03;100597.44;5023274;28;20296;-63
2022/08/08 04:18:05;;;;;;;1.47;1.00;;;;;;;14.64;61.11;100597.78;5013939;28;20225;-63
2022/08/08 04:20:30;;;;;;;1.17;1.07;;;;;;;14.68;60.89;100598.47;5011598;28;20221;-63
2022/08/08 04:22:56;;;;;;;2.63;1.03;;;;;;;14.60;60.41;100603.25;5021376;28;20660;-63
2022/08/08 04:25:21;;;;;;;1.87;1.10;;;;;;;14.67;59.85;100599.38;5013410;28;20620;-63
2022/08/08 04:27:46;;;;;;;3.40;1.00;;;;;;;14.72;59.48;100597.34;5013297;28;20305;-63
2022/08/08 04:30:12;;;;;;;2.20;1.10;;;;;;;14.90;59.07;100608.28;5004554;28;20277;-63
2022/08/08 04:32:37;;;;;;;2.93;1.17;;;;;;;14.87;58.52;100603.28;5043067;28;20183;-63
2022/08/08 04:35:03;;;;;;;1.30;1.20;;;;;;;14.84;58.84;100616.44;5016998;28;20186;-63
2022/08/08 04:37:28;;;;;;;1.00;1.00;;;;;;;14.84;59.99;100619.84;5013470;28;20665;-63
2022/08/08 04:39:55;;;;;;;1.60;1.33;;;;;;;14.80;60.58;100615.00;5012273;28;20183;-63
2022/08/08 04:42:20;;;;;;;1.33;1.17;;;;;;;14.92;59.84;100621.13;5035151;28;20221;-63
2022/08/08 04:44:46;;;;;;;6.53;1.30;;;;;;;14.77;62.89;100623.78;5011817;28;20179;-63
2022/08/08 04:47:11;;;;;;;9.60;1.43;;;;;;;14.75;64.14;100628.22;5013178;28;20198;-62
2022/08/08 04:49:36;;;;;;;2.87;1.03;;;;;;;14.93;62.17;100628.78;5008998;28;20224;-63
2022/08/08 04:52:02;;;;;;;1.90;1.03;;;;;;;15.11;60.62;100637.13;5037587;28;20268;-63
2022/08/08 04:54:27;;;;;;;5.40;1.43;;;;;;;15.26;59.47;100639.66;5012910;28;20190;-63
2022/08/08 04:56:53;;;;;;;1.20;1.10;;;;;;;15.23;59.58;100637.25;5013161;28;20625;-63
2022/08/08 04:59:18;;;;;;;2.13;1.30;;;;;;;15.27;59.49;100636.97;5012953;28;20187;-63
2022/08/08 05:01:44;;;;;;;1.50;1.23;;;;;;;15.37;59.29;100647.56;5030310;28;20225;-62
2022/08/08 05:04:09;;;;;;;3.40;1.27;;;;;;;15.38;58.96;100648.38;5013594;28;20645;-62
2022/08/08 05:06:34;;;;;;;3.83;1.47;;;;;;;15.53;58.28;100643.94;5012722;28;20235;-63
2022/08/08 05:09:00;;;;;;;4.40;1.10;;;;;;;15.64;57.24;100647.50;5012860;28;20262;-63
2022/08/08 05:11:25;;;;;;;1.87;1.30;;;;;;;15.68;57.22;100648.13;5030584;28;20247;-63
2022/08/08 05:13:50;;;;;;;1.67;1.13;;;;;;;15.69;57.78;100643.75;5022738;28;20228;-62
2022/08/08 05:16:16;;;;;;;2.63;1.40;;;;;;;15.88;55.78;100641.59;5024670;28;20268;-62
2022/08/08 05:18:41;;;;;;;3.80;1.30;;;;;;;16.01;55.72;100644.16;5011733;28;20190;-62
2022/08/08 05:21:07;;;;;;;1.97;1.27;;;;;;;16.08;56.07;100645.41;5013233;28;20228;-62
2022/08/08 05:23:33;;;;;;;3.23;1.20;;;;;;;16.19;56.12;100646.47;5027305;28;20665;-62
2022/08/08 05:25:58;;;;;;;3.53;1.30;;;;;;;16.12;55.41;100644.28;5010555;28;20186;-62
2022/08/08 05:28:24;;;;;;;3.47;1.50;;;;;;;16.14;55.96;100647.59;5012267;28;20233;-62
2022/08/08 05:30:50;;;;;;;3.70;1.40;;;;;;;16.30;55.05;100657.72;5015684;28;20236;-62
2022/08/08 05:33:16;;;;;;;3.67;1.50;;;;;;;16.55;54.33;100657.78;5021131;28;20240;-62
2022/08/08 05:35:42;;;;;;;3.80;1.47;;;;;;;16.68;54.12;100663.75;5015982;28;20175;-62
2022/08/08 05:38:14;;;;;;;2.63;1.40;;;;;;;16.71;53.64;100657.53;5012333;28;20190;-63
2022/08/08 05:40:51;;;;;;;3.80;1.43;;;;;;;16.79;53.63;100657.78;4998865;28;20236;-63
2022/08/08 05:43:25;;;;;;;2.77;1.20;;;;;;;16.90;53.43;100660.44;5031046;28;20190;-62
2022/08/08 05:45:55;;;;;;;5.33;1.10;;;;;;;17.05;52.34;100655.91;5014138;28;20205;-62
2022/08/08 05:48:20;;;;;;;4.43;1.23;;;;;;;17.15;52.69;100661.28;5009988;28;20215;-63
2022/08/08 05:50:46;;;;;;;3.33;1.23;;;;;;;17.34;51.71;100663.38;5013462;28;20231;-63
2022/08/08 05:53:11;;;;;;;4.67;1.37;;;;;;;17.45;51.42;100667.75;5032544;28;20258;-62
2022/08/08 05:55:42;;;;;;;5.37;1.30;;;;;;;17.61;51.10;100670.03;5010448;28;20194;-62
2022/08/08 05:58:10;;;;;;;2.40;1.27;;;;;;;17.73;50.99;100673.50;5010799;28;20536;-63
2022/08/08 06:00:36;;;;;;;3.67;1.20;;;;;;;17.76;51.45;100673.25;5010840;28;20230;-63
2022/08/08 06:03:11;;;;;;;3.90;1.30;;;;;;;18.00;49.89;100674.97;5035410;28;20182;-63
2022/08/08 06:05:52;;;;;;;4.57;1.07;;;;;;;17.93;49.38;100677.16;5009899;28;20245;-63
2022/08/08 06:08:29;;;;;;;4.40;1.20;;;;;;;18.18;48.72;100685.72;5011945;28;20206;-63
2022/08/08 06:10:57;;;;;;;3.57;1.00;;;;;;;18.46;48.75;100681.00;5017113;28;20240;-64
2022/08/08 06:13:25;;;;;;;6.50;1.07;;;;;;;18.54;48.25;100675.97;5029754;28;20194;-63
2022/08/08 06:15:53;;;;;;;4.30;1.20;;;;;;;18.62;48.80;100672.75;5024225;28;20189;-63
2022/08/08 06:18:22;;;;;;;2.70;1.60;;;;;;;18.70;48.08;100681.66;5009338;28;20276;-64
2022/08/08 06:20:48;;;;;;;10.83;1.87;;;;;;;18.97;45.47;100676.97;5012628;28;20221;-64
2022/08/08 06:23:13;;;;;;;3.50;1.30;;;;;;;19.22;43.28;100690.63;5031705;28;20183;-63
2022/08/08 06:25:41;;;;;;;1.50;0.90;;;;;;;19.23;43.07;100693.09;5009719;28;20179;-63
2022/08/08 06:28:22;;;;;;;2.10;1.53;;;;;;;19.52;41.93;100680.28;5010778;28;20205;-64
2022/08/08 06:30:51;;;;;;;2.97;1.07;;;;;;;19.54;41.82;100684.53;5009137;28;20213;-63
2022/08/08 06:33:22;;;;;;;6.40;1.53;;;;;;;19.87;40.47;100677.44;5027602;28;20337;-64
2022/08/08 06:35:48;;;;;;;4.73;1.30;;;;;;;20.15;40.12;100691.59;5011131;28;20175;-64
2022/08/08 06:38:18;;;;;;;5.30;1.00;;;;;;;20.39;39.21;100693.88;5010890;28;20714;-64
2022/08/08 06:40:47;;;;;;;4.00;1.23;;;;;;;20.67;39.26;100691.47;5011999;28;20221;-64
2022/08/08 06:43:15;;;;;;;1.67;1.27;;;;;;;20.96;38.25;100693.31;5020005;28;20664;-64
2022/08/08 06:45:41;;;;;;;6.63;1.50;;;;;;;21.44;37.31;100694.25;5008968;28;20178;-64
2022/08/08 06:48:06;;;;;;;3.70;1.10;;;;;;;21.99;35.83;100695.38;5010983;28;20194;-64
2022/08/08 06:50:32;;;;;;;5.33;1.10;;;;;;;23.83;33.03;100703.84;5007021;28;20217;-64
2022/08/08 06:53:01;;;;;;;4.47;1.60;;;;;;;25.22;30.61;100701.81;5034974;28;20213;-64
2022/08/08 06:55:29;;;;;;;8.00;1.47;;;;;;;26.15;28.61;100708.41;5010529;28;20179;-64
2022/08/08 06:57:54;;;;;;;2.38;1.40;;;;;;;27.45;26.81;100706.91;5010121;28;20179;-65
2022/08/08 07:00:19;;;;;;;2.55;1.50;;;;;;;27.66;26.52;100708.81;4989648;28;20182;-73
2022/08/08 07:02:52;;;;;;;5.72;1.33;;;;;;;27.88;25.25;100719.47;4993089;28;20192;-76
2022/08/08 07:05:23;;;;;;;3.83;1.40;;;;;;;27.47;25.34;100718.09;4993742;28;20235;-76
2022/08/08 07:08:10;;;;;;;6.05;1.50;;;;;;;27.88;25.44;100727.41;4991661;28;20199;-76
2022/08/08 07:10:40;;;;;;;6.45;2.03;;;;;;;28.62;24.53;100723.03;5015247;28;20732;-76
2022/08/08 07:13:08;;;;;;;4.70;1.35;;;;;;;28.58;24.29;100727.88;5017695;28;20266;-77
2022/08/08 07:16:11;;;;;;;4.40;0.95;;;;;;;27.57;25.60;100724.94;5025550;28;20234;-77
2022/08/08 07:19:14;;;;;;;2.53;1.00;;;;;;;27.40;25.69;100735.69;5005002;28;20198;-76
2022/08/08 07:21:55;;;;;;;3.30;1.27;;;;;;;27.08;25.81;100740.19;5020736;28;20220;-77
2022/08/08 07:24:32;;;;;;;2.50;0.80;;;;;;;28.29;24.89;100736.69;5009914;28;20190;-77
2022/08/08 07:26:58;;;;;;;6.13;1.45;;;;;;;29.80;23.47;100735.84;5011255;28;20205;-76
2022/08/08 07:29:24;;;;;;;5.05;1.10;;;;;;;30.37;22.14;100735.72;5015039;28;20218;-79
2022/08/08 07:31:49;;;;;;;9.23;1.55;;;;;;;30.10;22.91;100730.31;5019703;28;20343;-77
2022/08/08 07:34:16;;;;;;;7.32;1.20;;;;;;;30.71;22.26;100741.94;5016003;28;20194;-76
2022/08/08 07:36:42;;;;;;;5.57;1.58;;;;;;;31.76;21.52;100738.69;5019020;28;20218;-77
2022/08/08 07:39:08;;;;;;;5.18;1.38;;;;;;;31.45;22.21;100742.81;5014936;28;20320;-76
2022/08/08 07:41:39;;;;;;;5.07;1.45;;;;;;;31.92;21.09;100736.63;5017925;28;20294;-76
2022/08/08 07:44:05;;;;;;;4.03;0.80;;;;;;;30.32;22.41;100744.28;5014093;28;20281;-76
2022/08/08 07:46:31;;;;;;;7.68;1.23;;;;;;;30.21;22.93;100736.88;5013657;28;20273;-78
2022/08/08 07:48:56;;;;;;;5.53;1.20;;;;;;;30.45;22.23;100745.34;5014955;28;20226;-78
2022/08/08 07:51:23;;;;;;;5.70;1.10;;;;;;;31.27;21.58;100738.16;5017495;28;20221;-78
2022/08/08 07:54:07;;;;;;;1.88;0.85;;;;;;;31.43;20.34;100739.53;5026287;28;20253;-79
2022/08/08 07:56:39;;;;;;;4.00;1.00;;;;;;;30.47;20.88;100745.97;5014655;28;20198;-79
2022/08/08 07:59:11;;;;;;;3.92;0.70;;;;;;;30.49;21.15;100750.06;5014392;28;20202;-78
2022/08/08 08:01:41;;;;;;;3.22;1.10;;;;;;;30.44;21.16;100736.56;5028978;28;20232;-76
2022/08/08 08:04:13;;;;;;;8.35;1.17;;;;;;;30.00;22.12;100737.81;5019407;28;20562;-78
2022/08/08 08:06:39;;;;;;;4.07;0.90;;;;;;;30.45;20.72;100747.97;5014518;28;20246;-77
2022/08/08 08:09:24;;;;;;;5.90;0.93;;;;;;;28.62;22.79;100752.16;5014099;28;20214;-76
2022/08/08 08:11:51;;;;;;;2.97;0.60;;;;;;;29.23;22.41;100746.44;5029064;28;20225;-75
2022/08/08 08:14:22;;;;;;;3.22;1.00;;;;;;;29.40;22.52;100756.81;5018425;28;20175;-75
2022/08/08 08:16:48;;;;;;;1.65;0.80;;;;;;;28.97;22.98;100747.84;5002455;28;20183;-75
2022/08/08 08:19:14;;;;;;;2.70;1.00;;;;;;;30.50;21.20;100754.38;5013607;28;20194;-75
2022/08/08 08:21:42;;;;;;;5.55;0.93;;;;;;;29.37;22.20;100763.28;5035229;28;20230;-77
2022/08/08 08:24:08;;;;;;;1.75;0.75;;;;;;;30.14;21.34;100758.06;5011222;28;20194;-76
2022/08/08 08:26:33;;;;;;;2.05;0.73;;;;;;;29.40;22.51;100762.09;5045425;28;20244;-75
2022/08/08 08:28:59;;;;;;;1.25;0.75;;;;;;;29.28;22.16;100759.91;5011798;28;20202;-75
2022/08/08 08:31:25;;;;;;;1.83;0.85;;;;;;;29.30;22.26;100763.22;5024809;28;20334;-76
2022/08/08 08:33:50;;;;;;;2.05;0.77;;;;;;;31.47;20.49;100761.22;5016614;28;20178;-76
2022/08/08 08:36:17;;;;;;;3.55;1.60;;;;;;;33.33;18.93;100765.13;5017034;28;20183;-76
2022/08/08 08:38:43;;;;;;;1.45;0.90;;;;;;;30.49;20.63;100768.66;5013030;28;20183;-75
2022/08/08 08:41:13;;;;;;;1.33;1.02;;;;;;;29.70;21.88;100768.00;5021131;28;20771;-76
2022/08/08 08:43:39;;;;;;;3.85;0.70;;;;;;;30.55;21.10;100756.41;5019043;28;20286;-74
2022/08/08 08:46:10;;;;;;;2.42;0.68;;;;;;;31.18;20.17;100772.06;5012754;28;20198;-76
2022/08/08 08:48:36;;;;;;;2.40;0.68;;;;;;;32.67;18.51;100771.50;5012048;28;20301;-76
2022/08/08 08:51:03;;;;;;;1.75;0.63;;;;;;;31.17;19.99;100772.25;5018332;28;20777;-75
2022/08/08 08:53:35;;;;;;;1.30;0.68;;;;;;;31.70;20.01;100768.78;5028950;28;20181;-74
2022/08/08 08:56:00;;;;;;;4.05;0.88;;;;;;;31.22;20.22;100770.63;5012709;28;20182;-75
2022/08/08 08:58:56;;;;;;;3.97;1.00;;;;;;;31.37;20.07;100767.78;5013461;28;20240;-75
2022/08/08 09:01:26;;;;;;;1.92;0.90;;;;;;;31.44;19.82;100767.75;4974915;28;20230;-74
2022/08/08 09:03:58;;;;;;;3.95;0.98;;;;;;;31.38;20.18;100764.09;4979040;28;20179;-76
2022/08/08 09:06:30;;;;;;;4.93;1.00;;;;;;;30.11;21.27;100761.13;4990592;28;20239;-75
2022/08/08 09:09:07;;;;;;;1.73;0.68;;;;;;;30.91;20.52;100768.53;4990670;28;20277;-75
2022/08/08 09:11:34;;;;;;;3.75;0.88;;;;;;;30.77;20.52;100770.34;4982784;28;20283;-73
2022/08/08 09:14:03;;;;;;;1.02;0.68;;;;;;;30.29;20.86;100767.72;4992205;28;20307;-75
2022/08/08 09:16:32;;;;;;;2.35;1.02;;;;;;;30.88;20.74;100769.75;4996418;28;20331;-75
2022/08/08 09:18:57;;;;;;;2.78;0.75;;;;;;;30.67;20.73;100765.41;4977474;28;20191;-75
2022/08/08 09:21:23;;;;;;;2.97;0.75;;;;;;;30.04;21.35;100761.09;4992038;28;20241;-79
2022/08/08 09:23:48;;;;;;;2.75;0.75;;;;;;;31.45;19.90;100764.09;4997449;28;20658;-77
2022/08/08 09:26:20;;;;;;;4.95;0.80;;;;;;;32.80;18.28;100762.63;4989916;28;20294;-77
2022/08/08 09:28:45;;;;;;;2.47;0.90;;;;;;;32.16;19.21;100761.69;4973775;28;20222;-77
2022/08/08 09:31:14;;;;;;;2.67;0.90;;;;;;;31.13;20.13;100768.38;4972914;28;20226;-76
2022/08/08 09:33:44;;;;;;;1.90;0.88;;;;;;;32.84;18.84;100760.34;4975627;28;20550;-76
2022/08/08 09:36:20;;;;;;;3.72;0.88;;;;;;;32.05;19.35;100757.81;4977027;28;20639;-77
2022/08/08 09:38:58;;;;;;;1.65;0.90;;;;;;;33.39;18.33;100764.25;5009396;28;20558;-77
2022/08/08 09:41:36;;;;;;;1.67;0.90;;;;;;;32.25;19.00;100756.97;5024075;28;20224;-78
2022/08/08 09:44:37;;;;;;;0.50;0.50;;;;;;;31.83;18.72;100768.75;5014259;28;20197;-75
2022/08/08 09:47:06;;;;;;;1.02;0.70;;;;;;;31.03;20.04;100766.91;5010445;28;20214;-76
2022/08/08 09:49:34;;;;;;;1.85;0.60;;;;;;;29.03;22.15;100766.66;5010099;28;20186;-76
2022/08/08 09:52:02;;;;;;;2.78;0.65;;;;;;;30.78;20.20;100756.06;5032807;28;20221;-76
2022/08/08 09:54:40;;;;;;;5.15;0.70;;;;;;;31.54;19.77;100757.53;5010027;28;20186;-75
2022/08/08 09:57:09;;;;;;;4.85;0.68;;;;;;;31.98;19.63;100747.22;5007546;28;20193;-74
2022/08/08 09:59:37;;;;;;;1.05;0.90;;;;;;;31.52;19.45;100761.44;5009105;28;20183;-69
2022/08/08 10:02:03;;;;;;;1.35;0.88;;;;;;;33.34;18.39;100746.22;5016640;28;20225;-75
2022/08/08 10:04:31;;;;;;;1.80;0.75;;;;;;;35.42;16.37;100753.41;5011416;28;20559;-75
2022/08/08 10:06:56;;;;;;;3.78;0.70;;;;;;;35.95;16.44;100748.88;5011519;28;20229;-77
2022/08/08 10:09:32;;;;;;;1.40;0.50;;;;;;;34.08;16.40;100748.16;5011657;28;20285;-74
2022/08/08 10:11:57;;;;;;;1.95;0.70;;;;;;;32.69;17.86;100743.84;5019205;28;20228;-75
2022/08/08 10:14:37;;;;;;;1.65;0.60;;;;;;;32.75;17.88;100751.00;5014294;28;20197;-76
2022/08/08 10:17:08;;;;;;;4.68;0.80;;;;;;;33.22;17.80;100748.78;5008425;28;20186;-75
2022/08/08 10:19:39;;;;;;;2.03;0.82;;;;;;;34.64;16.30;100740.81;5008587;28;20187;-76
2022/08/08 10:22:05;;;;;;;1.85;0.63;;;;;;;32.75;17.46;100741.16;5010481;28;20240;-76
2022/08/08 10:24:35;;;;;;;0.85;0.82;;;;;;;31.97;18.45;100742.13;5023360;28;20191;-76
2022/08/08 10:27:02;;;;;;;2.45;0.63;;;;;;;32.19;17.89;100737.31;5007112;28;20175;-76
2022/08/08 10:29:38;;;;;;;2.47;0.80;;;;;;;31.35;18.56;100734.44;5007206;28;20197;-78
2022/08/08 10:35:01;;;;;;;1.63;0.73;;;;;;;33.52;17.25;100728.66;5006316;28;20201;-75
2022/08/08 10:37:30;;;;;;;3.83;0.70;;;;;;;32.45;17.80;100725.75;5010348;28;20189;-76
2022/08/08 10:39:57;;;;;;;2.85;0.73;;;;;;;33.11;17.42;100726.31;5010330;28;20183;-75
2022/08/08 10:42:30;;;;;;;4.05;0.80;;;;;;;31.47;18.51;100727.50;5017056;28;20635;-74
2022/08/08 10:45:05;;;;;;;1.60;0.90;;;;;;;31.96;18.37;100721.84;5009630;28;20526;-74
2022/08/08 10:47:30;;;;;;;2.22;0.77;;;;;;;30.31;19.31;100726.72;4997349;28;20216;-74
2022/08/08 10:50:01;;;;;;;1.85;0.50;;;;;;;29.09;21.01;100713.72;5011612;28;20549;-74
2022/08/08 10:52:31;;;;;;;1.38;0.68;;;;;;;29.01;21.50;100719.13;5016409;28;20702;-74
2022/08/08 10:55:00;;;;;;;2.47;1.00;;;;;;;27.94;22.52;100720.59;5009463;28;20182;-74
2022/08/08 10:57:25;;;;;;;0.90;0.57;;;;;;;27.63;22.86;100711.81;5009516;28;20195;-74
2022/08/08 10:59:55;;;;;;;3.53;0.55;;;;;;;27.70;22.84;100715.38;5012299;28;20187;-77
2022/08/08 11:02:31;;;;;;;2.95;0.90;;;;;;;27.37;23.13;100710.38;5009101;28;20659;-77
2022/08/08 11:05:05;;;;;;;2.85;0.90;;;;;;;27.27;23.46;100707.19;5003155;28;20216;-74
2022/08/08 11:07:33;;;;;;;1.85;0.90;;;;;;;27.46;23.63;100710.34;5014496;28;20755;-75
2022/08/08 11:10:10;;;;;;;1.15;0.77;;;;;;;27.46;23.33;100710.34;5011708;28;20182;-75
2022/08/08 11:12:47;;;;;;;5.00;0.80;;;;;;;27.33;23.88;100705.66;5014261;28;20234;-75
2022/08/08 11:15:15;;;;;;;3.28;0.63;;;;;;;27.32;23.04;100698.72;5006662;28;20605;-76
2022/08/08 11:17:41;;;;;;;4.15;0.80;;;;;;;27.24;23.51;100699.63;5028531;28;20198;-78
2022/08/08 11:20:08;;;;;;;3.67;0.95;;;;;;;27.55;23.35;100698.72;5037175;28;20199;-75
2022/08/08 11:22:35;;;;;;;0.60;0.60;;;;;;;27.14;24.45;100704.31;5044630;28;20552;-66
2022/08/08 11:25:02;;;;;;;2.63;1.40;;;;;;;27.15;23.69;100705.97;5014542;28;20191;-65
2022/08/08 11:27:33;;;;;;;2.20;1.00;;;;;;;27.25;23.72;100688.03;5015024;28;20261;-64
2022/08/08 11:30:00;;;;;;;1.52;0.90;;;;;;;27.19;23.17;100697.53;5002551;28;20233;-64
2022/08/08 11:32:30;;;;;;;1.10;0.55;;;;;;;27.07;24.07;100706.88;4998225;28;20226;-64
2022/08/08 11:35:05;;;;;;;1.92;1.05;;;;;;;26.94;23.82;100698.72;5014166;28;20178;-65
2022/08/08 11:37:32;;;;;;;3.05;1.02;;;;;;;26.97;23.69;100693.09;5015105;28;20249;-64
2022/08/08 11:39:59;;;;;;;0.90;0.70;;;;;;;27.26;23.92;100686.25;5014152;28;20178;-64
2022/08/08 11:42:25;;;;;;;2.38;0.75;;;;;;;27.33;23.63;100684.53;5036647;28;20294;-65
2022/08/08 11:44:53;;;;;;;0.82;0.80;;;;;;;27.45;23.46;100690.22;5013709;28;20627;-66
2022/08/08 11:47:19;;;;;;;1.30;0.60;;;;;;;27.51;23.32;100690.31;5015110;28;20199;-64
2022/08/08 11:49:46;;;;;;;1.38;0.70;;;;;;;27.27;23.27;100683.41;5013079;28;20266;-66
2022/08/08 11:52:12;;;;;;;2.10;0.63;;;;;;;27.16;24.05;100684.66;5036211;28;20304;-61
2022/08/08 11:54:44;;;;;;;1.77;1.00;;;;;;;26.98;23.68;100689.44;5013942;28;20713;-64
2022/08/08 11:57:09;;;;;;;2.00;0.85;;;;;;;26.88;23.99;100684.44;5010527;28;20285;-63
2022/08/08 11:59:37;;;;;;;1.08;0.57;;;;;;;26.81;25.06;100671.09;5013790;28;20634;-65